Time;durP1;ratioP1;P1;durP2;ratioP2;P2;SDS_P1;SDS_P2;PMS_P1;PMS_P2;Temp;Humidity;BMP_temperature;BMP_pressure;BME280_temperature;BME280_humidity;BME280_pressure;Samples;Min_cycle;Max_cycle;Signal;HPM_P1;HPM_P2
2022/04/20 00:00:08;;;;;;;5.97;4.10;;;;;;;7.57;62.22;101513.84;6186794;23;20056;-80
2022/04/20 00:02:33;;;;;;;7.47;4.30;;;;;;;7.52;61.68;101505.47;6159837;23;20001;-78
2022/04/20 00:04:58;;;;;;;7.68;4.43;;;;;;;7.89;62.59;101571.72;6186684;23;20420;-77
2022/04/20 00:07:24;;;;;;;7.15;4.40;;;;;;;7.68;62.70;101542.53;6186718;23;20012;-77
2022/04/20 00:09:49;;;;;;;7.45;3.83;;;;;;;7.88;62.27;101571.78;6186399;23;20415;-78
2022/04/20 00:12:14;;;;;;;6.07;3.90;;;;;;;7.86;62.39;101566.66;6186630;23;20005;-78
2022/04/20 00:14:40;;;;;;;6.20;4.00;;;;;;;7.82;62.46;101572.00;6186294;23;20029;-77
2022/04/20 00:17:05;;;;;;;6.63;3.92;;;;;;;7.84;62.04;101575.34;6186445;23;20032;-77
2022/04/20 00:19:30;;;;;;;7.35;4.30;;;;;;;7.82;62.06;101567.69;6185981;23;20055;-79
2022/04/20 00:21:56;;;;;;;9.25;5.20;;;;;;;7.76;61.97;101561.03;6159819;23;20028;-86
2022/04/20 00:24:21;;;;;;;7.85;4.55;;;;;;;7.50;62.34;101511.59;6159968;23;20438;-85
2022/04/20 00:26:46;;;;;;;5.57;4.03;;;;;;;7.58;62.70;101537.81;6186039;23;20032;-83
2022/04/20 00:29:12;;;;;;;7.70;4.35;;;;;;;7.66;62.59;101562.31;6186021;23;20009;-78
2022/04/20 00:31:37;;;;;;;10.27;4.70;;;;;;;7.59;62.83;101552.34;6186162;23;20035;-77
2022/04/20 00:34:02;;;;;;;8.20;4.15;;;;;;;7.35;63.07;101524.09;6185943;23;20012;-77
2022/04/20 00:36:28;;;;;;;7.22;4.57;;;;;;;7.52;63.57;101562.03;6186109;23;20005;-78
2022/04/20 00:38:53;;;;;;;7.80;4.05;;;;;;;7.51;63.93;101575.75;6186166;23;20021;-86
2022/04/20 00:41:19;;;;;;;6.65;4.28;;;;;;;7.43;64.00;101562.38;6185902;23;20063;-77
2022/04/20 00:43:45;;;;;;;8.60;4.50;;;;;;;7.42;64.51;101571.81;6186345;23;20009;-84
2022/04/20 00:46:12;;;;;;;7.63;4.03;;;;;;;7.19;63.93;101544.44;6186074;23;20009;-77
2022/04/20 00:48:38;;;;;;;6.53;4.50;;;;;;;7.35;63.50;101583.19;6186116;23;20379;-77
2022/04/20 00:51:03;;;;;;;7.90;4.82;;;;;;;7.20;64.06;101563.25;6185814;23;20001;-80
2022/04/20 00:53:29;;;;;;;7.53;4.47;;;;;;;7.12;65.05;101568.66;6186080;23;20037;-83
2022/04/20 00:55:55;;;;;;;7.20;4.82;;;;;;;7.17;64.27;101583.88;6186268;23;20040;-77
2022/04/20 00:58:20;;;;;;;7.53;5.10;;;;;;;6.95;65.29;101557.31;6186268;23;20001;-87
2022/04/20 01:00:45;;;;;;;8.27;4.57;;;;;;;7.07;64.84;101592.81;6185897;23;20423;-79
2022/04/20 01:03:11;;;;;;;7.45;4.55;;;;;;;7.07;65.20;101590.25;6185643;23;20374;-79
2022/04/20 01:05:36;;;;;;;7.53;4.70;;;;;;;7.06;64.29;101584.28;6185763;23;20416;-78
2022/04/20 01:08:02;;;;;;;10.15;4.65;;;;;;;6.96;65.45;101575.22;6185474;23;20052;-80
2022/04/20 01:10:28;;;;;;;9.63;4.97;;;;;;;6.87;64.98;101566.13;6185836;23;20031;-77
2022/04/20 01:12:53;;;;;;;7.57;4.85;;;;;;;6.93;64.51;101583.06;6186179;23;20036;-77
2022/04/20 01:15:19;;;;;;;10.05;4.57;;;;;;;6.95;64.92;101585.56;6185938;23;20032;-78
2022/04/20 01:17:44;;;;;;;9.13;4.70;;;;;;;6.90;64.48;101584.00;6185538;23;20004;-85
2022/04/20 01:20:14;;;;;;;8.25;4.80;;;;;;;6.88;65.19;101580.66;6185473;23;20001;-84
2022/04/20 01:22:41;;;;;;;8.40;4.60;;;;;;;6.72;64.76;101561.53;6185950;23;20084;-74
2022/04/20 01:25:07;;;;;;;9.13;4.90;;;;;;;6.10;64.61;101469.66;6185371;23;20447;-79
2022/04/20 01:27:34;;;;;;;5.88;4.07;;;;;;;6.81;64.71;101584.31;6185967;23;20012;-81
2022/04/20 01:29:59;;;;;;;7.18;4.75;;;;;;;6.71;65.06;101579.56;6185391;23;20017;-78
2022/04/20 01:32:25;;;;;;;9.02;5.40;;;;;;;6.75;65.29;101587.09;6185866;23;20027;-80
2022/04/20 01:34:51;;;;;;;8.95;4.07;;;;;;;6.46;64.47;101546.22;6185357;23;20005;-79
2022/04/20 01:37:16;;;;;;;8.30;4.80;;;;;;;6.59;65.32;101570.56;6158580;23;20379;-78
2022/04/20 01:39:42;;;;;;;8.10;5.07;;;;;;;6.47;65.22;101564.13;6185414;23;20090;-79
2022/04/20 01:42:08;;;;;;;10.77;4.80;;;;;;;6.60;65.83;101593.63;6185897;23;20075;-78
2022/04/20 01:44:33;;;;;;;8.73;4.43;;;;;;;6.57;65.72;101592.84;6185533;23;20423;-80
2022/04/20 01:46:59;;;;;;;10.55;4.93;;;;;;;6.36;65.36;101573.91;6158663;23;20103;-78
2022/04/20 01:49:24;;;;;;;8.50;4.65;;;;;;;6.18;66.36;101559.13;6185312;23;20011;-78
2022/04/20 01:51:52;;;;;;;8.13;4.50;;;;;;;6.40;65.59;101600.31;6185364;23;20315;-78
2022/04/20 01:54:21;;;;;;;7.13;4.40;;;;;;;6.22;65.23;101565.84;6185386;23;20766;-77
2022/04/20 01:56:48;;;;;;;7.57;5.18;;;;;;;6.07;66.73;101567.16;6185537;23;20001;-78
2022/04/20 01:59:14;;;;;;;7.30;4.85;;;;;;;6.22;67.41;101597.44;6185594;23;20005;-78
2022/04/20 02:04:24;;;;;;;7.05;4.53;;;;;;;6.14;66.50;101594.28;6185220;23;20101;-78
2022/04/20 02:06:49;;;;;;;7.18;4.85;;;;;;;5.88;68.08;101566.88;6185363;23;20025;-77
2022/04/20 02:09:14;;;;;;;6.88;4.68;;;;;;;6.01;67.44;101595.59;6185655;23;20076;-79
2022/04/20 02:11:40;;;;;;;8.43;4.75;;;;;;;5.93;67.94;101594.97;6185474;23;20005;-78
2022/04/20 02:14:05;;;;;;;9.98;4.75;;;;;;;5.94;67.89;101594.94;6185308;23;20005;-78
2022/04/20 02:16:31;;;;;;;8.90;5.18;;;;;;;5.93;67.15;101587.28;6185619;23;20005;-78
2022/04/20 02:18:56;;;;;;;9.40;5.38;;;;;;;5.70;68.75;101558.06;6185001;23;20008;-79
2022/04/20 02:21:22;;;;;;;7.72;4.75;;;;;;;5.69;67.67;101564.06;6185478;23;20005;-77
2022/04/20 02:23:47;;;;;;;7.85;4.45;;;;;;;5.75;67.36;101566.44;6185592;23;20016;-78
2022/04/20 02:26:13;;;;;;;6.85;4.50;;;;;;;5.86;68.22;101585.75;6185622;23;20092;-78
2022/04/20 02:28:38;;;;;;;7.38;4.90;;;;;;;5.81;68.39;101593.59;6185145;23;20431;-80
2022/04/20 02:31:05;;;;;;;7.55;4.93;;;;;;;5.77;68.07;101589.44;6184994;23;20067;-81
2022/04/20 02:33:31;;;;;;;8.80;5.07;;;;;;;5.71;68.18;101587.09;6185277;23;20001;-77
2022/04/20 02:35:57;;;;;;;7.93;4.60;;;;;;;5.54;67.73;101561.13;6184844;23;20032;-78
2022/04/20 02:38:23;;;;;;;8.57;4.85;;;;;;;5.72;67.04;101584.47;6185549;23;20035;-78
2022/04/20 02:40:50;;;;;;;8.82;5.32;;;;;;;5.61;68.07;101578.00;6185555;23;20483;-78
2022/04/20 02:43:16;;;;;;;11.63;4.57;;;;;;;5.52;67.46;101555.22;6187269;23;20039;-78
2022/04/20 02:45:42;;;;;;;8.82;5.38;;;;;;;5.51;67.40;101561.25;6187573;23;20001;-77
2022/04/20 02:48:07;;;;;;;8.45;5.00;;;;;;;5.60;68.74;101586.56;6186943;23;20007;-77
2022/04/20 02:50:32;;;;;;;8.57;4.60;;;;;;;5.51;67.33;101561.25;6186992;23;20001;-80
2022/04/20 02:52:58;;;;;;;7.93;4.10;;;;;;;5.62;66.33;101579.69;6187288;23;20063;-78
2022/04/20 02:55:24;;;;;;;10.32;4.43;;;;;;;5.69;67.31;101596.53;6186867;23;20412;-78
2022/04/20 02:57:50;;;;;;;9.10;4.75;;;;;;;5.42;66.50;101552.94;6187391;23;20014;-77
2022/04/20 03:00:16;;;;;;;7.60;4.65;;;;;;;5.29;66.47;101532.84;6186823;23;20005;-79
2022/04/20 03:02:41;;;;;;;7.38;4.22;;;;;;;5.75;66.21;101602.31;6186911;23;20037;-79
2022/04/20 03:05:07;;;;;;;8.32;4.97;;;;;;;5.51;66.73;101563.81;6186815;23;20008;-79
2022/04/20 03:07:33;;;;;;;7.65;4.90;;;;;;;5.70;66.55;101598.19;6186863;23;20033;-79
2022/04/20 03:09:58;;;;;;;10.43;5.47;;;;;;;5.48;66.36;101567.28;6186933;23;20004;-79
2022/04/20 03:12:24;;;;;;;8.43;4.68;;;;;;;5.68;66.87;101610.22;6187304;23;20076;-81
2022/04/20 03:14:51;;;;;;;7.78;4.50;;;;;;;5.67;66.30;101611.13;6186634;23;20005;-78
2022/04/20 03:17:17;;;;;;;8.82;4.68;;;;;;;5.63;66.69;101604.41;6186931;23;20005;-77
2022/04/20 03:19:42;;;;;;;7.28;4.85;;;;;;;5.64;66.74;101606.94;6160170;23;20005;-77
2022/04/20 03:22:08;;;;;;;7.35;4.75;;;;;;;5.42;66.17;101570.03;6186976;23;20011;-77
2022/04/20 03:24:33;;;;;;;7.68;4.97;;;;;;;5.55;66.84;101602.06;6186706;23;20124;-77
2022/04/20 03:26:58;;;;;;;7.28;4.65;;;;;;;5.40;67.23;101592.25;6186671;23;20005;-77
2022/04/20 03:29:23;;;;;;;9.57;4.95;;;;;;;5.38;67.15;101602.56;6186241;23;20017;-79
2022/04/20 03:31:49;;;;;;;7.57;4.30;;;;;;;5.30;66.53;101586.56;6186558;23;20005;-78
2022/04/20 03:34:14;;;;;;;7.65;5.05;;;;;;;5.39;67.15;101624.72;6186951;23;20080;-79
2022/04/20 03:36:40;;;;;;;8.88;5.22;;;;;;;5.36;67.58;101617.13;6186766;23;20044;-78
2022/04/20 03:39:06;;;;;;;7.75;4.53;;;;;;;5.30;67.72;101617.31;6186812;23;20035;-79
2022/04/20 03:41:31;;;;;;;8.25;4.80;;;;;;;5.25;67.36;101621.72;6186981;23;20005;-79
2022/04/20 03:43:57;;;;;;;7.43;4.78;;;;;;;5.00;68.54;101587.44;6186483;23;20041;-78
2022/04/20 03:46:23;;;;;;;9.10;4.78;;;;;;;5.21;68.18;101627.84;6159187;23;20016;-78
2022/04/20 03:48:49;;;;;;;8.73;5.00;;;;;;;5.17;67.62;101629.63;6185272;23;20009;-77
2022/04/20 03:51:15;;;;;;;7.57;5.10;;;;;;;5.19;67.74;101630.41;6186565;23;20020;-78
2022/04/20 03:53:40;;;;;;;8.93;4.95;;;;;;;5.20;67.62;101623.56;6186166;23;20434;-78
2022/04/20 03:56:05;;;;;;;7.65;4.85;;;;;;;5.02;68.04;101593.38;6159053;23;20012;-78
2022/04/20 03:58:31;;;;;;;7.93;4.95;;;;;;;5.15;68.46;101628.81;6186768;23;20001;-78
2022/04/20 04:00:56;;;;;;;7.95;4.50;;;;;;;5.15;67.60;101628.00;6186761;23;20140;-77
2022/04/20 04:03:22;;;;;;;8.13;4.85;;;;;;;4.99;67.25;101601.13;6186699;23;20024;-77
2022/04/20 04:05:47;;;;;;;9.13;5.20;;;;;;;5.14;67.44;101628.88;6186318;23;20009;-77
2022/04/20 04:08:13;;;;;;;7.97;4.88;;;;;;;4.88;67.51;101589.47;6186759;23;20012;-78
2022/04/20 04:10:39;;;;;;;8.27;4.75;;;;;;;5.12;68.18;101633.22;6186433;23;20599;-77
2022/04/20 04:13:05;;;;;;;7.72;5.13;;;;;;;5.13;67.59;101628.03;6186473;23;20431;-79
2022/04/20 04:15:33;;;;;;;7.63;4.57;;;;;;;5.16;66.98;101632.22;6186059;23;20012;-78
2022/04/20 04:17:59;;;;;;;8.23;5.22;;;;;;;4.87;67.88;101585.22;6186403;23;20013;-78
2022/04/20 04:20:28;;;;;;;7.47;5.07;;;;;;;5.00;67.64;101600.25;6186219;23;20001;-78
2022/04/20 04:22:54;;;;;;;8.95;5.43;;;;;;;5.16;67.00;101635.63;6186014;23;20377;-81
2022/04/20 04:25:20;;;;;;;9.07;5.20;;;;;;;5.12;68.31;101635.75;6185979;23;20007;-78
2022/04/20 04:27:47;;;;;;;7.97;5.22;;;;;;;5.07;67.56;101625.63;6186532;23;20012;-78
2022/04/20 04:30:13;;;;;;;8.18;5.13;;;;;;;5.11;67.14;101626.38;6185959;23;20386;-80
2022/04/20 04:32:38;;;;;;;10.57;5.18;;;;;;;5.12;68.33;101636.59;6186470;23;20359;-77
2022/04/20 04:35:04;;;;;;;8.77;5.38;;;;;;;5.06;68.20;101635.91;6185952;23;20100;-81
2022/04/20 04:37:30;;;;;;;9.40;5.38;;;;;;;4.85;67.93;101599.78;6186167;23;20001;-76
2022/04/20 04:39:56;;;;;;;7.47;5.20;;;;;;;5.13;67.52;101645.13;6185611;23;20005;-78
2022/04/20 04:42:22;;;;;;;8.13;5.68;;;;;;;5.05;68.01;101639.38;6159297;23;20009;-77
2022/04/20 04:44:47;;;;;;;8.50;5.70;;;;;;;5.11;68.22;101650.28;6185982;23;20412;-78
2022/04/20 04:49:57;;;;;;;9.20;5.43;;;;;;;5.09;68.39;101648.63;6186209;23;20454;-80
2022/04/20 04:52:22;;;;;;;7.95;5.20;;;;;;;5.11;67.74;101652.84;6185925;23;20074;-78
2022/04/20 04:54:48;;;;;;;10.18;5.32;;;;;;;5.16;68.09;101655.28;6185889;23;20028;-77
2022/04/20 04:57:13;;;;;;;10.25;6.03;;;;;;;5.19;68.38;101660.28;6186044;23;20012;-78
2022/04/20 04:59:40;;;;;;;14.68;5.97;;;;;;;5.20;67.99;101664.53;6186086;23;20084;-77
2022/04/20 05:02:06;;;;;;;10.85;5.38;;;;;;;5.24;67.12;101662.75;6185852;23;20001;-78
2022/04/20 05:04:33;;;;;;;11.00;5.35;;;;;;;5.27;67.78;101670.34;6185964;23;20015;-77
2022/04/20 05:06:59;;;;;;;8.30;4.75;;;;;;;5.31;67.47;101670.22;6185230;23;20009;-77
2022/04/20 05:09:24;;;;;;;14.13;5.75;;;;;;;5.32;67.78;101671.91;6185999;23;20093;-77
2022/04/20 05:11:50;;;;;;;11.63;5.63;;;;;;;5.36;67.33;101676.03;6185661;23;20001;-75
2022/04/20 05:14:16;;;;;;;8.45;5.45;;;;;;;5.43;66.79;101684.41;6185672;23;20008;-77
2022/04/20 05:16:41;;;;;;;8.95;5.20;;;;;;;5.48;67.16;101677.41;6185686;23;20419;-77
2022/04/20 05:19:07;;;;;;;10.07;5.60;;;;;;;5.55;66.51;101676.38;6186026;23;20008;-77
2022/04/20 05:21:32;;;;;;;8.95;5.78;;;;;;;5.55;66.09;101670.41;6186019;23;20378;-78
2022/04/20 05:23:58;;;;;;;10.38;4.97;;;;;;;5.68;66.50;101680.25;6185794;23;20080;-80
2022/04/20 05:26:25;;;;;;;8.18;4.93;;;;;;;5.45;65.00;101626.28;6184966;23;20008;-75
2022/04/20 05:28:51;;;;;;;8.63;4.85;;;;;;;5.69;64.64;101647.78;6185674;23;20003;-77
2022/04/20 05:31:16;;;;;;;9.25;5.22;;;;;;;5.63;64.59;101624.91;6185809;23;20333;-88
2022/04/20 05:33:42;;;;;;;9.90;4.63;;;;;;;6.10;64.05;101677.34;6185748;23;20004;-79
2022/04/20 05:36:07;;;;;;;9.35;4.78;;;;;;;6.13;63.59;101672.13;6185475;23;20020;-78
2022/04/20 05:44:12;;;;;;;7.80;5.10;;;;;;;6.69;62.10;101682.31;6065841;23;20039;-77
2022/04/20 05:46:41;;;;;;;8.23;4.90;;;;;;;6.83;63.21;101677.53;6065940;23;20434;-78
2022/04/20 05:49:07;;;;;;;9.00;5.22;;;;;;;7.62;60.24;101639.63;6042188;23;20063;-80
2022/04/20 05:51:32;;;;;;;7.75;4.60;;;;;;;9.36;56.08;101679.69;6065888;23;20461;-78
2022/04/20 05:54:03;;;;;;;6.93;4.93;;;;;;;10.73;53.11;101679.28;6065492;23;20014;-78
2022/04/20 05:56:28;;;;;;;8.10;4.80;;;;;;;11.91;49.39;101668.78;6065861;23;20199;-78
2022/04/20 05:59:07;;;;;;;;;;;;;;;;;;;;;
2022/04/20 06:02:14;;;;;;;8.25;5.32;;;;;;;13.84;47.18;101663.38;6067137;23;20089;-88
2022/04/20 06:04:42;;;;;;;8.52;4.78;;;;;;;14.39;42.70;101634.69;6008748;23;20098;-79
2022/04/20 06:07:08;;;;;;;8.88;4.80;;;;;;;14.41;40.59;101541.03;6008932;23;20091;-79
2022/04/20 06:20:01;;;;;;;6.97;4.50;;;;;;;15.72;39.72;101547.44;6026449;23;20021;-78
2022/04/20 06:23:00;;;;;;;7.18;4.28;;;;;;;16.69;38.04;101664.44;6127389;23;20010;-78
2022/04/20 06:25:31;;;;;;;10.75;4.72;;;;;;;16.21;36.44;101502.91;6125597;23;20372;-78
2022/04/20 06:27:57;;;;;;;8.40;4.53;;;;;;;17.25;34.88;101664.50;6125828;23;20009;-78
2022/04/20 06:30:57;;;;;;;8.35;4.40;;;;;;;17.64;37.60;101670.97;6125759;23;20017;-78
2022/04/20 06:33:37;;;;;;;8.57;4.70;;;;;;;17.93;34.42;101607.75;6125634;23;20149;-78
2022/04/20 06:36:19;;;;;;;8.23;4.10;;;;;;;17.92;34.82;101613.94;6101209;23;20017;-79
2022/04/20 06:39:27;;;;;;;9.38;4.53;;;;;;;18.41;34.74;101665.63;6125596;23;20006;-78
2022/04/20 06:42:07;;;;;;;7.90;3.85;;;;;;;17.57;34.19;101497.41;6161170;23;20009;-78
2022/04/20 06:44:39;;;;;;;6.93;4.38;;;;;;;18.67;33.27;101594.63;6187466;23;20009;-78
2022/04/20 06:47:08;;;;;;;7.65;4.15;;;;;;;18.95;31.06;101601.78;6159593;23;20008;-79
2022/04/20 06:49:37;;;;;;;7.65;4.30;;;;;;;18.57;30.87;101561.34;6187726;23;20001;-78
2022/04/20 07:00:20;;;;;;;7.97;3.92;;;;;;;20.29;29.77;101668.50;6187063;23;20016;-77
2022/04/20 07:03:01;;;;;;;6.60;3.47;;;;;;;20.29;30.72;101668.50;6160606;23;20005;-79
2022/04/20 07:05:27;;;;;;;8.20;4.28;;;;;;;19.91;29.25;101658.00;6187217;23;20313;-78
2022/04/20 07:07:52;;;;;;;7.15;4.00;;;;;;;19.74;29.94;101669.97;6160944;23;20051;-80
2022/04/20 07:10:17;;;;;;;6.88;4.35;;;;;;;19.59;29.86;101672.16;6187362;23;20005;-79
2022/04/20 07:12:43;;;;;;;7.60;3.58;;;;;;;18.57;31.83;101673.00;6187110;23;20076;-79
2022/04/20 07:15:08;;;;;;;5.55;3.90;;;;;;;17.20;33.70;101661.38;6187307;23;20382;-80
2022/04/20 07:17:34;;;;;;;6.40;3.97;;;;;;;16.10;35.97;101680.09;6187372;23;20044;-78
2022/04/20 07:20:02;;;;;;;7.30;4.45;;;;;;;14.98;38.07;101681.06;6186981;23;20071;-78
2022/04/20 07:22:27;;;;;;;8.90;4.20;;;;;;;14.23;38.80;101680.78;6187012;23;20005;-82
2022/04/20 07:24:53;;;;;;;7.40;4.25;;;;;;;13.58;41.41;101678.03;6187050;23;20033;-79
2022/04/20 07:27:19;;;;;;;9.85;4.18;;;;;;;12.79;42.09;101650.75;6184662;23;20013;-79
2022/04/20 07:29:44;;;;;;;6.78;4.30;;;;;;;12.48;43.03;101681.94;6183588;23;20021;-80
2022/04/20 07:32:12;;;;;;;7.18;4.38;;;;;;;11.93;44.72;101636.72;6187292;23;20084;-78
2022/04/20 07:34:38;;;;;;;11.52;5.10;;;;;;;11.76;45.00;101641.94;6186742;23;20414;-85
2022/04/20 07:37:04;;;;;;;8.00;4.13;;;;;;;11.97;45.56;101694.31;6187372;23;20048;-80
2022/04/20 07:39:29;;;;;;;6.90;4.78;;;;;;;11.86;46.37;101697.50;6186949;23;20005;-79
2022/04/20 07:41:57;;;;;;;8.55;4.47;;;;;;;11.76;46.24;101691.13;6186613;23;20032;-79
2022/04/20 07:44:22;;;;;;;6.15;4.18;;;;;;;11.77;47.95;101696.19;6187036;23;20020;-79
2022/04/20 07:46:47;;;;;;;7.05;4.65;;;;;;;11.69;47.16;101677.66;6186526;23;20005;-78
2022/04/20 07:51:59;;;;;;;7.90;4.22;;;;;;;11.69;46.28;101662.13;6186902;23;20400;-78
2022/04/20 07:54:27;;;;;;;7.38;4.57;;;;;;;11.79;46.00;101678.00;6186713;23;20005;-83
2022/04/20 07:56:52;;;;;;;7.25;4.40;;;;;;;11.88;46.61;101682.72;6186442;23;20411;-80
2022/04/20 07:59:17;;;;;;;9.85;4.15;;;;;;;12.02;45.71;101703.50;6187050;23;20055;-79
2022/04/20 08:01:43;;;;;;;7.35;4.47;;;;;;;12.06;45.91;101696.41;6186810;23;20001;-78
2022/04/20 08:04:08;;;;;;;8.60;4.50;;;;;;;12.00;45.96;101686.41;6186923;23;20016;-80
2022/04/20 08:06:35;;;;;;;7.70;4.25;;;;;;;12.03;46.72;101678.47;6186626;23;20328;-79
2022/04/20 08:09:00;;;;;;;6.57;4.20;;;;;;;12.07;45.33;101675.59;6186430;23;20080;-80
2022/04/20 08:11:26;;;;;;;7.53;4.32;;;;;;;12.25;45.12;101699.63;6186676;23;20087;-79
2022/04/20 08:14:10;;;;;;;7.40;3.95;;;;;;;12.22;44.81;101699.81;6186425;23;20007;-81
2022/04/20 08:16:38;;;;;;;6.88;4.18;;;;;;;12.17;45.88;101682.84;6185332;23;20017;-78
2022/04/20 08:19:04;;;;;;;7.82;4.35;;;;;;;12.06;45.64;101663.56;6186769;23;20013;-80
2022/04/20 08:21:32;;;;;;;6.88;4.13;;;;;;;12.37;45.66;101699.84;6186421;23;20095;-78
2022/04/20 08:23:57;;;;;;;8.20;4.07;;;;;;;12.50;45.38;101701.69;6186528;23;20008;-84
2022/04/20 08:26:22;;;;;;;6.45;3.88;;;;;;;12.61;45.10;101714.03;6186495;23;20377;-79
2022/04/20 08:28:48;;;;;;;7.78;4.35;;;;;;;12.65;45.62;101707.72;6186527;23;20088;-78
2022/04/20 08:31:15;;;;;;;7.13;3.83;;;;;;;12.54;44.84;101686.78;6181636;23;20336;-79
2022/04/20 08:33:41;;;;;;;7.57;4.45;;;;;;;12.50;44.24;101664.59;6183870;23;20092;-78
2022/04/20 08:36:07;;;;;;;6.80;4.13;;;;;;;12.87;44.07;101709.91;6186509;23;20009;-78
2022/04/20 08:38:33;;;;;;;7.55;4.20;;;;;;;12.96;43.21;101714.56;6186233;23;20438;-79
2022/04/20 08:41:00;;;;;;;8.50;3.90;;;;;;;13.09;43.67;101710.34;6185915;23;20009;-78
2022/04/20 08:43:28;;;;;;;6.05;3.80;;;;;;;12.94;43.89;101674.94;6186159;23;20008;-79
2022/04/20 08:45:54;;;;;;;7.18;4.20;;;;;;;12.92;42.93;101672.44;6186228;23;20028;-79
2022/04/20 08:48:20;;;;;;;11.20;5.07;;;;;;;12.96;42.58;101678.25;6186378;23;20001;-78
2022/04/20 08:50:46;;;;;;;7.40;3.75;;;;;;;13.12;41.90;101685.97;6186557;23;19997;-78
2022/04/20 08:53:15;;;;;;;6.63;4.32;;;;;;;13.32;43.00;101703.78;6186009;23;19997;-79
2022/04/20 08:55:40;;;;;;;7.60;4.30;;;;;;;13.39;43.03;101692.13;6186080;23;20012;-79
2022/04/20 08:58:07;;;;;;;7.60;4.63;;;;;;;13.49;41.93;101700.19;6186299;23;20005;-78
2022/04/20 09:00:33;;;;;;;8.60;4.22;;;;;;;13.36;40.70;101694.88;6183925;23;20340;-79
2022/04/20 09:03:00;;;;;;;7.90;4.45;;;;;;;13.07;40.55;101662.88;6186073;23;20305;-78
2022/04/20 09:05:28;;;;;;;8.10;4.30;;;;;;;13.34;40.85;101701.09;6185934;23;20001;-79
2022/04/20 09:07:53;;;;;;;9.32;4.32;;;;;;;13.13;40.69;101667.72;6186395;23;20076;-79
2022/04/20 09:10:19;;;;;;;6.70;4.50;;;;;;;13.38;41.24;101707.78;6186070;23;20431;-82
2022/04/20 09:13:02;;;;;;;7.78;4.00;;;;;;;13.38;41.60;101690.47;6185769;23;20048;-78
2022/04/20 09:15:31;;;;;;;9.82;4.80;;;;;;;13.28;41.92;101665.16;6186056;23;20083;-78
2022/04/20 09:17:57;;;;;;;8.43;4.40;;;;;;;13.27;42.19;101645.31;6185905;23;20443;-79
2022/04/20 09:20:23;;;;;;;9.50;4.38;;;;;;;13.62;41.68;101692.47;6185975;23;20001;-82
2022/04/20 09:22:59;;;;;;;8.52;4.63;;;;;;;13.64;41.53;101693.19;6186675;23;20016;-81
2022/04/20 09:25:30;;;;;;;6.13;3.95;;;;;;;13.60;40.47;101700.34;6184464;23;20005;-87
2022/04/20 09:27:56;;;;;;;9.98;4.38;;;;;;;13.60;41.34;101687.38;6185526;23;20379;-86
2022/04/20 09:30:24;;;;;;;8.40;4.63;;;;;;;13.35;42.31;101643.94;6186377;23;20013;-78
2022/04/20 09:32:49;;;;;;;8.65;4.53;;;;;;;13.67;40.95;101688.66;6185702;23;20152;-86
2022/04/20 09:35:18;;;;;;;9.35;3.95;;;;;;;13.62;41.28;101656.13;6185729;23;20066;-87
2022/04/20 09:37:44;;;;;;;8.30;4.50;;;;;;;13.89;40.70;101675.16;6185669;23;20005;-87
2022/04/20 09:40:11;;;;;;;7.70;4.35;;;;;;;14.00;42.14;101674.47;6185544;23;20001;-79
2022/04/20 09:43:01;;;;;;;5.65;3.65;;;;;;;14.04;40.08;101675.94;6159205;23;20001;-79
2022/04/20 09:45:26;;;;;;;5.75;3.30;;;;;;;14.07;39.07;101671.41;6186125;23;19997;-83
2022/04/20 09:50:36;;;;;;;7.07;4.07;;;;;;;14.14;40.53;101660.59;6186112;23;20083;-86
2022/04/20 09:53:06;;;;;;;8.25;4.28;;;;;;;14.16;39.83;101664.78;6185393;23;20005;-78
2022/04/20 09:55:36;;;;;;;6.30;3.10;;;;;;;14.26;38.79;101668.44;6185388;23;20012;-84
2022/04/20 09:58:27;;;;;;;7.38;3.53;;;;;;;14.28;39.86;101653.59;6185473;23;20001;-77
2022/04/20 10:00:56;;;;;;;7.53;3.20;;;;;;;14.23;38.98;101618.44;6178185;23;20016;-79
2022/04/20 10:03:35;;;;;;;7.15;2.97;;;;;;;14.53;38.59;101668.41;6185400;23;19997;-80
2022/04/20 10:06:12;;;;;;;6.72;3.00;;;;;;;14.52;38.78;101663.31;6190273;23;20031;-75
2022/04/20 10:08:38;;;;;;;5.70;3.22;;;;;;;14.54;38.85;101664.88;6186000;23;20473;-76
2022/04/20 10:11:05;;;;;;;6.78;3.05;;;;;;;14.35;39.84;101620.22;6185758;23;20004;-85
2022/04/20 10:13:31;;;;;;;7.40;3.10;;;;;;;14.40;37.42;101640.72;6184873;23;20001;-90
2022/04/20 10:16:06;;;;;;;6.43;3.67;;;;;;;13.98;37.97;101595.84;6158767;23;20016;-76
2022/04/20 10:18:40;;;;;;;5.82;3.15;;;;;;;14.21;38.80;101633.31;6187602;23;20001;-79
2022/04/20 10:21:11;;;;;;;7.07;3.13;;;;;;;13.97;40.61;101573.41;6184619;23;20028;-84
2022/04/20 11:20:11;;;;;;;6.85;3.70;;;;;;;14.14;40.28;101478.78;6187554;23;20020;-90
2022/04/20 11:23:41;;;;;;;5.93;4.05;;;;;;;14.17;41.37;101458.66;6187260;23;20001;-91
2022/04/20 11:30:00;;;;;;;7.93;4.35;;;;;;;15.20;40.67;101590.19;6204463;23;20052;-93
2022/04/20 11:32:37;;;;;;;6.53;4.32;;;;;;;14.05;39.58;101410.94;6038307;23;20007;-92
2022/04/20 11:35:15;;;;;;;6.05;4.40;;;;;;;14.10;40.63;101408.03;6015486;23;20082;-92
2022/04/20 11:37:57;;;;;;;7.53;4.78;;;;;;;14.14;40.30;101437.22;6014608;23;20018;-92
2022/04/20 11:43:45;;;;;;;8.88;4.30;;;;;;;14.89;39.86;101523.88;6044011;23;20011;-94
2022/04/20 11:46:34;;;;;;;8.30;3.95;;;;;;;15.24;40.36;101580.38;6027602;23;20011;-95
2022/04/20 11:49:30;;;;;;;7.45;4.20;;;;;;;15.23;40.40;101566.53;6014460;23;20048;-90
2022/04/20 11:52:18;;;;;;;8.25;3.92;;;;;;;15.33;38.87;101564.94;6045510;23;20492;-89
2022/04/20 12:01:28;;;;;;;6.43;3.92;;;;;;;14.67;38.83;101471.72;5982025;24;20023;-95
2022/04/20 12:03:55;;;;;;;9.82;3.97;;;;;;;14.82;38.08;101499.22;5958103;24;20012;-93
2022/04/20 12:06:25;;;;;;;7.43;3.70;;;;;;;14.96;38.50;101513.88;5982401;24;20087;-94
2022/04/20 12:08:53;;;;;;;6.13;3.53;;;;;;;14.75;39.88;101470.25;6004750;23;20010;-93
2022/04/20 12:11:19;;;;;;;7.20;3.85;;;;;;;15.18;40.07;101514.84;6076103;23;20018;-95
2022/04/20 12:14:03;;;;;;;6.22;4.07;;;;;;;15.26;40.18;101506.50;6044288;23;20429;-93
2022/04/20 12:16:43;;;;;;;6.93;4.05;;;;;;;15.11;38.13;101476.34;6066397;23;20011;-91
2022/04/20 12:19:31;;;;;;;7.00;4.22;;;;;;;15.49;38.92;101534.28;6066424;23;20011;-93
2022/04/20 12:28:43;;;;;;;5.72;3.47;;;;;;;15.71;38.71;101530.97;6190924;22;20036;-93
2022/04/20 12:31:12;;;;;;;5.22;3.45;;;;;;;15.42;39.66;101495.78;6194987;23;20064;-93
2022/04/20 12:33:41;;;;;;;6.90;3.60;;;;;;;15.01;39.61;101415.53;6187306;23;20404;-92
2022/04/20 12:36:35;;;;;;;;;;;;;;;;;;;;;
2022/04/20 12:43:12;;;;;;;6.70;3.75;;;;;;;14.66;38.38;101330.53;6091971;23;20016;-89
2022/04/20 12:45:47;;;;;;;6.43;3.78;;;;;;;15.68;37.10;101510.38;6155925;23;20336;-89
2022/04/20 12:48:13;;;;;;;6.32;3.83;;;;;;;15.54;38.59;101476.69;6158251;23;20032;-93
2022/04/20 12:50:40;;;;;;;5.55;3.53;;;;;;;15.33;38.84;101439.19;6157310;23;20005;-88
2022/04/20 13:02:36;;;;;;;6.53;3.47;;;;;;;15.97;38.27;101505.63;6039148;23;20390;-88
2022/04/20 13:05:19;;;;;;;6.30;4.38;;;;;;;15.94;38.20;101507.63;6055789;23;20464;-95
2022/04/20 13:07:46;;;;;;;8.20;4.13;;;;;;;15.45;37.71;101426.13;6045857;23;20011;-88
2022/04/20 13:14:11;;;;;;;6.45;3.92;;;;;;;16.00;37.79;101499.34;5968784;24;20359;-96
2022/04/20 13:20:08;;;;;;;6.38;4.10;;;;;;;15.56;39.43;101427.94;5934986;24;20230;-84
2022/04/20 13:23:10;;;;;;;7.38;4.65;;;;;;;15.96;39.34;101480.50;5953769;24;20047;-88
2022/04/20 13:28:26;;;;;;;8.20;4.00;;;;;;;16.18;39.50;101484.09;5954783;24;20027;-90
2022/04/20 13:31:06;;;;;;;7.38;3.80;;;;;;;15.14;38.54;101289.69;6084504;23;20025;-91
2022/04/20 13:33:48;;;;;;;6.85;4.13;;;;;;;15.40;38.89;101324.13;6158940;23;20407;-81
2022/04/20 13:36:14;;;;;;;6.03;4.13;;;;;;;15.65;39.10;101371.78;6155994;23;20427;-90
2022/04/20 13:38:54;;;;;;;7.28;4.38;;;;;;;15.80;38.94;101406.25;6130142;23;20001;-86
2022/04/20 13:44:41;;;;;;;7.93;4.10;;;;;;;15.29;38.81;101351.91;6155715;23;20091;-84
2022/04/20 13:47:19;;;;;;;6.90;4.53;;;;;;;15.68;40.21;101401.03;6155793;23;20037;-86
2022/04/20 13:50:17;;;;;;;7.95;4.50;;;;;;;15.10;39.56;101290.84;6129843;23;20442;-84
2022/04/20 13:52:53;;;;;;;6.35;4.55;;;;;;;16.14;38.84;101454.84;6154938;23;20005;-88
2022/04/20 13:55:28;;;;;;;6.40;4.10;;;;;;;15.65;41.42;101363.97;6156141;23;20006;-86
2022/04/20 13:57:58;;;;;;;6.47;4.40;;;;;;;15.58;39.78;101339.31;6130151;23;20538;-86